sensor_id;sensor_type;location;lat;lon;timestamp;pressure;altitude;pressure_sealevel;temperature;humidity
54146;BME280;65909;49.422;7.738;2023-01-28T00:01:37;78003.53;;;-145.25;85.34
54146;BME280;65909;49.422;7.738;2023-01-28T00:04:03;77987.47;;;-145.25;85.49
54146;BME280;65909;49.422;7.738;2023-01-28T00:06:28;77989.47;;;-145.25;84.68
54146;BME280;65909;49.422;7.738;2023-01-28T00:08:53;77989.47;;;-145.25;85.05
54146;BME280;65909;49.422;7.738;2023-01-28T00:11:20;77999.50;;;-145.25;85.09
54146;BME280;65909;49.422;7.738;2023-01-28T00:13:50;78009.53;;;-145.25;85.17
54146;BME280;65909;49.422;7.738;2023-01-28T00:16:16;78015.56;;;-145.25;85.58
54146;BME280;65909;49.422;7.738;2023-01-28T00:18:41;78001.50;;;-145.25;85.15
54146;BME280;65909;49.422;7.738;2023-01-28T00:21:10;78001.50;;;-145.25;84.62
54146;BME280;65909;49.422;7.738;2023-01-28T00:23:37;78015.56;;;-145.25;85.12
54146;BME280;65909;49.422;7.738;2023-01-28T00:26:05;78045.63;;;-145.25;85.55
54146;BME280;65909;49.422;7.738;2023-01-28T00:28:31;78051.66;;;-145.25;86.41
54146;BME280;65909;49.422;7.738;2023-01-28T00:30:56;78051.66;;;-145.25;86.33
54146;BME280;65909;49.422;7.738;2023-01-28T00:33:22;78063.69;;;-145.25;87.03
54146;BME280;65909;49.422;7.738;2023-01-28T00:35:59;78067.69;;;-145.25;86.98
54146;BME280;65909;49.422;7.738;2023-01-28T00:38:25;78061.69;;;-145.25;86.83
54146;BME280;65909;49.422;7.738;2023-01-28T00:40:51;78073.72;;;-145.25;86.93
54146;BME280;65909;49.422;7.738;2023-01-28T00:43:16;78067.69;;;-145.25;86.85
54146;BME280;65909;49.422;7.738;2023-01-28T00:45:42;78085.75;;;-145.25;87.34
54146;BME280;65909;49.422;7.738;2023-01-28T00:48:07;78103.81;;;-145.25;87.47
54146;BME280;65909;49.422;7.738;2023-01-28T00:50:33;78117.84;;;-145.25;88.12
54146;BME280;65909;49.422;7.738;2023-01-28T00:52:59;78127.88;;;-145.25;88.46
54146;BME280;65909;49.422;7.738;2023-01-28T00:55:24;78111.81;;;-145.25;88.14
54146;BME280;65909;49.422;7.738;2023-01-28T00:57:50;78105.81;;;-145.25;88.21
54146;BME280;65909;49.422;7.738;2023-01-28T01:00:16;78111.81;;;-145.25;87.96
54146;BME280;65909;49.422;7.738;2023-01-28T01:02:43;78101.78;;;-145.25;87.59
54146;BME280;65909;49.422;7.738;2023-01-28T01:05:08;78081.75;;;-145.25;87.24
54146;BME280;65909;49.422;7.738;2023-01-28T01:07:33;78089.75;;;-145.25;87.25
54146;BME280;65909;49.422;7.738;2023-01-28T01:10:07;78075.72;;;-145.25;86.91
54146;BME280;65909;49.422;7.738;2023-01-28T01:12:32;78089.75;;;-145.25;86.28
54146;BME280;65909;49.422;7.738;2023-01-28T01:14:58;78097.78;;;-145.25;86.59
54146;BME280;65909;49.422;7.738;2023-01-28T01:17:24;78083.75;;;-145.25;86.49
54146;BME280;65909;49.422;7.738;2023-01-28T01:19:49;78101.78;;;-145.25;86.38
54146;BME280;65909;49.422;7.738;2023-01-28T01:22:15;78097.78;;;-145.25;86.72
54146;BME280;65909;49.422;7.738;2023-01-28T01:24:40;78089.75;;;-145.25;86.55
54146;BME280;65909;49.422;7.738;2023-01-28T01:27:05;78101.78;;;-145.25;86.36
54146;BME280;65909;49.422;7.738;2023-01-28T01:29:31;78091.78;;;-145.25;86.55
54146;BME280;65909;49.422;7.738;2023-01-28T01:31:58;78073.72;;;-145.25;86.23
54146;BME280;65909;49.422;7.738;2023-01-28T01:34:23;78065.69;;;-145.25;85.66
54146;BME280;65909;49.422;7.738;2023-01-28T01:36:49;78087.75;;;-145.25;85.95
54146;BME280;65909;49.422;7.738;2023-01-28T01:39:14;78077.72;;;-145.25;86.35
54146;BME280;65909;49.422;7.738;2023-01-28T01:41:39;78087.75;;;-145.25;86.05
54146;BME280;65909;49.422;7.738;2023-01-28T01:44:05;78089.75;;;-145.25;86.69
54146;BME280;65909;49.422;7.738;2023-01-28T01:46:43;78065.69;;;-145.25;85.82
54146;BME280;65909;49.422;7.738;2023-01-28T01:49:20;78093.78;;;-145.25;86.14
54146;BME280;65909;49.422;7.738;2023-01-28T01:51:49;78083.75;;;-145.25;86.20
54146;BME280;65909;49.422;7.738;2023-01-28T01:54:16;78073.72;;;-145.25;86.41
54146;BME280;65909;49.422;7.738;2023-01-28T01:56:46;78087.75;;;-145.25;85.89
54146;BME280;65909;49.422;7.738;2023-01-28T01:59:14;78091.78;;;-145.25;86.90
54146;BME280;65909;49.422;7.738;2023-01-28T02:01:43;78123.84;;;-145.25;87.71
54146;BME280;65909;49.422;7.738;2023-01-28T02:04:14;78089.75;;;-145.25;87.39
54146;BME280;65909;49.422;7.738;2023-01-28T02:06:43;78083.75;;;-145.25;86.75
54146;BME280;65909;49.422;7.738;2023-01-28T02:09:23;78075.72;;;-145.25;85.98
54146;BME280;65909;49.422;7.738;2023-01-28T02:11:54;78073.72;;;-145.25;86.20
54146;BME280;65909;49.422;7.738;2023-01-28T02:14:22;78061.69;;;-145.25;86.30
54146;BME280;65909;49.422;7.738;2023-01-28T02:16:49;78067.69;;;-145.25;86.09
54146;BME280;65909;49.422;7.738;2023-01-28T02:19:16;78053.66;;;-145.25;85.97
54146;BME280;65909;49.422;7.738;2023-01-28T02:21:56;78057.66;;;-145.25;86.45
54146;BME280;65909;49.422;7.738;2023-01-28T02:27:45;78065.69;;;-145.25;87.13
54146;BME280;65909;49.422;7.738;2023-01-28T02:30:15;78075.72;;;-145.25;87.14
54146;BME280;65909;49.422;7.738;2023-01-28T02:33:02;78083.75;;;-145.25;87.94
54146;BME280;65909;49.422;7.738;2023-01-28T02:35:38;78101.78;;;-145.25;89.19
54146;BME280;65909;49.422;7.738;2023-01-28T02:38:10;78107.81;;;-145.25;89.77
54146;BME280;65909;49.422;7.738;2023-01-28T02:40:38;78079.72;;;-145.25;89.66
54146;BME280;65909;49.422;7.738;2023-01-28T02:43:45;78087.75;;;-145.25;89.21
54146;BME280;65909;49.422;7.738;2023-01-28T02:48:58;78085.75;;;-145.25;88.72
54146;BME280;65909;49.422;7.738;2023-01-28T02:51:58;78085.75;;;-145.25;89.31
54146;BME280;65909;49.422;7.738;2023-01-28T02:54:37;78081.75;;;-145.25;88.83
54146;BME280;65909;49.422;7.738;2023-01-28T02:57:09;78061.69;;;-145.25;88.78
54146;BME280;65909;49.422;7.738;2023-01-28T02:59:54;78059.69;;;-145.25;87.72
54146;BME280;65909;49.422;7.738;2023-01-28T03:02:28;78073.72;;;-145.25;88.53
54146;BME280;65909;49.422;7.738;2023-01-28T03:05:06;78067.69;;;-145.25;88.42
54146;BME280;65909;49.422;7.738;2023-01-28T03:07:34;78051.66;;;-145.25;87.74
54146;BME280;65909;49.422;7.738;2023-01-28T03:10:03;78069.69;;;-145.25;87.67
54146;BME280;65909;49.422;7.738;2023-01-28T03:12:31;78055.66;;;-145.25;87.91
54146;BME280;65909;49.422;7.738;2023-01-28T03:18:22;78067.69;;;-145.25;87.11
54146;BME280;65909;49.422;7.738;2023-01-28T03:21:21;78099.78;;;-145.25;87.32
54146;BME280;65909;49.422;7.738;2023-01-28T03:24:12;78081.75;;;-145.25;87.40
54146;BME280;65909;49.422;7.738;2023-01-28T03:27:25;78111.81;;;-145.25;87.82
54146;BME280;65909;49.422;7.738;2023-01-28T03:30:26;78091.78;;;-145.25;87.37
54146;BME280;65909;49.422;7.738;2023-01-28T03:33:12;78077.72;;;-145.25;87.39
54146;BME280;65909;49.422;7.738;2023-01-28T03:35:57;78067.69;;;-145.25;86.60
54146;BME280;65909;49.422;7.738;2023-01-28T03:38:41;78065.69;;;-145.25;85.97
54146;BME280;65909;49.422;7.738;2023-01-28T03:41:11;78071.72;;;-145.25;86.51
54146;BME280;65909;49.422;7.738;2023-01-28T03:43:36;78065.69;;;-145.25;86.20
54146;BME280;65909;49.422;7.738;2023-01-28T03:46:02;78101.78;;;-145.25;86.54
54146;BME280;65909;49.422;7.738;2023-01-28T03:48:30;78113.81;;;-145.25;86.64
54146;BME280;65909;49.422;7.738;2023-01-28T03:50:56;78117.84;;;-145.25;87.10
54146;BME280;65909;49.422;7.738;2023-01-28T03:53:24;78117.84;;;-145.25;86.87
54146;BME280;65909;49.422;7.738;2023-01-28T03:55:52;78083.75;;;-145.25;86.31
54146;BME280;65909;49.422;7.738;2023-01-28T03:58:18;78105.81;;;-145.25;86.00
54146;BME280;65909;49.422;7.738;2023-01-28T04:00:43;78119.84;;;-145.25;86.23
54146;BME280;65909;49.422;7.738;2023-01-28T04:03:13;78109.81;;;-145.25;86.87
54146;BME280;65909;49.422;7.738;2023-01-28T04:05:56;78105.81;;;-145.25;85.80
54146;BME280;65909;49.422;7.738;2023-01-28T04:08:22;78085.75;;;-145.25;85.65
54146;BME280;65909;49.422;7.738;2023-01-28T04:10:47;78113.81;;;-145.25;85.42
54146;BME280;65909;49.422;7.738;2023-01-28T04:13:13;78091.78;;;-145.25;84.97
54146;BME280;65909;49.422;7.738;2023-01-28T04:15:38;78089.75;;;-145.25;84.31
54146;BME280;65909;49.422;7.738;2023-01-28T04:18:03;78093.78;;;-145.25;84.54
54146;BME280;65909;49.422;7.738;2023-01-28T04:20:29;78091.78;;;-145.25;84.03
54146;BME280;65909;49.422;7.738;2023-01-28T04:22:54;78089.75;;;-145.25;84.21
54146;BME280;65909;49.422;7.738;2023-01-28T04:25:22;78103.81;;;-145.25;84.95
54146;BME280;65909;49.422;7.738;2023-01-28T04:27:48;78125.88;;;-145.25;85.47
54146;BME280;65909;49.422;7.738;2023-01-28T04:30:13;78105.81;;;-145.25;85.45
54146;BME280;65909;49.422;7.738;2023-01-28T04:32:38;78087.75;;;-145.25;84.59
54146;BME280;65909;49.422;7.738;2023-01-28T04:35:04;78105.81;;;-145.25;85.04
54146;BME280;65909;49.422;7.738;2023-01-28T04:37:29;78093.78;;;-145.25;83.72
54146;BME280;65909;49.422;7.738;2023-01-28T04:39:55;78101.78;;;-145.25;84.07
54146;BME280;65909;49.422;7.738;2023-01-28T04:42:20;78117.84;;;-145.25;84.65
54146;BME280;65909;49.422;7.738;2023-01-28T04:44:45;78109.81;;;-145.25;84.02
54146;BME280;65909;49.422;7.738;2023-01-28T04:47:11;78115.84;;;-145.25;84.34
54146;BME280;65909;49.422;7.738;2023-01-28T04:49:36;78113.81;;;-145.25;84.09
54146;BME280;65909;49.422;7.738;2023-01-28T04:52:01;78117.84;;;-145.25;83.51
54146;BME280;65909;49.422;7.738;2023-01-28T04:54:27;78131.88;;;-145.25;83.75
54146;BME280;65909;49.422;7.738;2023-01-28T04:56:52;78147.94;;;-145.25;84.12
54146;BME280;65909;49.422;7.738;2023-01-28T04:59:17;78113.81;;;-145.25;84.07
54146;BME280;65909;49.422;7.738;2023-01-28T05:01:46;78093.78;;;-145.25;82.45
54146;BME280;65909;49.422;7.738;2023-01-28T05:04:12;78123.84;;;-145.25;83.49
54146;BME280;65909;49.422;7.738;2023-01-28T05:06:37;78099.78;;;-145.25;83.08
54146;BME280;65909;49.422;7.738;2023-01-28T05:09:02;78081.75;;;-145.25;82.43
54146;BME280;65909;49.422;7.738;2023-01-28T05:11:28;78111.81;;;-145.25;82.84
54146;BME280;65909;49.422;7.738;2023-01-28T05:13:53;78121.84;;;-145.25;82.70
54146;BME280;65909;49.422;7.738;2023-01-28T05:16:19;78125.88;;;-145.25;83.11
54146;BME280;65909;49.422;7.738;2023-01-28T05:18:44;78127.88;;;-145.25;83.27
54146;BME280;65909;49.422;7.738;2023-01-28T05:21:12;78121.84;;;-145.25;82.18
54146;BME280;65909;49.422;7.738;2023-01-28T05:23:37;78125.88;;;-145.25;82.21
54146;BME280;65909;49.422;7.738;2023-01-28T05:26:03;78119.84;;;-145.25;82.13
54146;BME280;65909;49.422;7.738;2023-01-28T05:28:28;78133.88;;;-145.25;82.39
54146;BME280;65909;49.422;7.738;2023-01-28T05:30:54;78137.91;;;-145.25;82.44
54146;BME280;65909;49.422;7.738;2023-01-28T05:33:22;78117.84;;;-145.25;81.68
54146;BME280;65909;49.422;7.738;2023-01-28T05:35:48;78111.81;;;-145.25;81.97
54146;BME280;65909;49.422;7.738;2023-01-28T05:38:13;78163.97;;;-145.25;83.16
54146;BME280;65909;49.422;7.738;2023-01-28T05:40:39;78139.91;;;-145.25;83.42
54146;BME280;65909;49.422;7.738;2023-01-28T05:43:04;78137.91;;;-145.25;81.84
54146;BME280;65909;49.422;7.738;2023-01-28T05:45:30;78153.94;;;-145.25;82.82
54146;BME280;65909;49.422;7.738;2023-01-28T05:47:55;78172.00;;;-145.25;82.73
54146;BME280;65909;49.422;7.738;2023-01-28T05:50:20;78135.91;;;-145.25;82.44
54146;BME280;65909;49.422;7.738;2023-01-28T05:52:46;78159.97;;;-145.25;82.54
54146;BME280;65909;49.422;7.738;2023-01-28T05:55:11;78167.97;;;-145.25;83.20
54146;BME280;65909;49.422;7.738;2023-01-28T05:57:36;78182.03;;;-145.25;83.11
54146;BME280;65909;49.422;7.738;2023-01-28T06:00:03;78165.97;;;-145.25;82.75
54146;BME280;65909;49.422;7.738;2023-01-28T06:02:29;78174.00;;;-145.25;82.64
54146;BME280;65909;49.422;7.738;2023-01-28T06:04:55;78153.94;;;-145.25;82.56
54146;BME280;65909;49.422;7.738;2023-01-28T06:07:20;78178.00;;;-145.25;82.76
54146;BME280;65909;49.422;7.738;2023-01-28T06:09:46;78186.03;;;-145.25;82.73
54146;BME280;65909;49.422;7.738;2023-01-28T06:12:12;78159.97;;;-145.25;81.96
54146;BME280;65909;49.422;7.738;2023-01-28T06:14:37;78141.91;;;-145.25;81.42
54146;BME280;65909;49.422;7.738;2023-01-28T06:17:03;78163.97;;;-145.25;81.59
54146;BME280;65909;49.422;7.738;2023-01-28T06:19:28;78163.97;;;-145.25;81.45
54146;BME280;65909;49.422;7.738;2023-01-28T06:21:53;78167.97;;;-145.25;82.54
54146;BME280;65909;49.422;7.738;2023-01-28T06:24:19;78176.00;;;-145.25;82.02
54146;BME280;65909;49.422;7.738;2023-01-28T06:26:45;78176.00;;;-145.25;81.63
54146;BME280;65909;49.422;7.738;2023-01-28T06:29:10;78172.00;;;-145.25;81.72
54146;BME280;65909;49.422;7.738;2023-01-28T06:31:35;78147.94;;;-145.25;80.98
54146;BME280;65909;49.422;7.738;2023-01-28T06:34:01;78172.00;;;-145.25;80.87
54146;BME280;65909;49.422;7.738;2023-01-28T06:36:26;78165.97;;;-145.25;80.69
54146;BME280;65909;49.422;7.738;2023-01-28T06:38:51;78167.97;;;-145.25;80.76
54146;BME280;65909;49.422;7.738;2023-01-28T06:41:17;78206.09;;;-145.25;81.39
54146;BME280;65909;49.422;7.738;2023-01-28T06:43:42;78198.06;;;-145.25;81.45
54146;BME280;65909;49.422;7.738;2023-01-28T06:46:07;78180.03;;;-145.25;81.19
54146;BME280;65909;49.422;7.738;2023-01-28T06:48:33;78182.03;;;-145.25;80.53
54146;BME280;65909;49.422;7.738;2023-01-28T06:50:58;78186.03;;;-145.25;81.10
54146;BME280;65909;49.422;7.738;2023-01-28T06:53:24;78178.00;;;-145.25;80.49
54146;BME280;65909;49.422;7.738;2023-01-28T06:55:49;78174.00;;;-145.25;80.01
54146;BME280;65909;49.422;7.738;2023-01-28T06:58:14;78182.03;;;-145.25;79.79
54146;BME280;65909;49.422;7.738;2023-01-28T07:00:40;78178.00;;;-145.25;80.09
54146;BME280;65909;49.422;7.738;2023-01-28T07:03:05;78165.97;;;-145.25;79.83
54146;BME280;65909;49.422;7.738;2023-01-28T07:05:31;78170.00;;;-145.25;79.26
54146;BME280;65909;49.422;7.738;2023-01-28T07:07:56;78165.97;;;-145.25;78.88
54146;BME280;65909;49.422;7.738;2023-01-28T07:10:22;78176.00;;;-145.25;79.27
54146;BME280;65909;49.422;7.738;2023-01-28T07:12:47;78161.97;;;-145.25;79.36
54146;BME280;65909;49.422;7.738;2023-01-28T07:15:12;78200.06;;;-145.25;79.49
54146;BME280;65909;49.422;7.738;2023-01-28T07:17:42;78194.06;;;-145.25;80.14
54146;BME280;65909;49.422;7.738;2023-01-28T07:20:10;78182.03;;;-145.25;79.57
54146;BME280;65909;49.422;7.738;2023-01-28T07:22:37;78212.09;;;-145.25;79.13
54146;BME280;65909;49.422;7.738;2023-01-28T07:25:04;78232.16;;;-145.25;80.21
54146;BME280;65909;49.422;7.738;2023-01-28T07:27:29;78218.13;;;-145.25;79.76
54146;BME280;65909;49.422;7.738;2023-01-28T07:29:55;78218.13;;;-145.25;79.63
54146;BME280;65909;49.422;7.738;2023-01-28T07:32:20;78198.06;;;-145.25;79.57
54146;BME280;65909;49.422;7.738;2023-01-28T07:34:45;78212.09;;;-145.25;79.00
54146;BME280;65909;49.422;7.738;2023-01-28T07:37:11;78202.09;;;-145.25;79.06
54146;BME280;65909;49.422;7.738;2023-01-28T07:39:36;78220.13;;;-145.25;80.84
54146;BME280;65909;49.422;7.738;2023-01-28T07:42:01;78218.13;;;-145.25;80.14
54146;BME280;65909;49.422;7.738;2023-01-28T07:44:27;78232.16;;;-145.25;80.80
54146;BME280;65909;49.422;7.738;2023-01-28T07:46:52;78222.13;;;-145.25;80.64
54146;BME280;65909;49.422;7.738;2023-01-28T07:49:18;78244.19;;;-145.25;81.62
54146;BME280;65909;49.422;7.738;2023-01-28T07:51:43;78230.16;;;-145.25;81.71
54146;BME280;65909;49.422;7.738;2023-01-28T07:54:11;78242.19;;;-145.25;81.04
54146;BME280;65909;49.422;7.738;2023-01-28T07:56:36;78242.19;;;-145.25;81.37
54146;BME280;65909;49.422;7.738;2023-01-28T07:59:02;78236.19;;;-145.25;81.45
54146;BME280;65909;49.422;7.738;2023-01-28T08:01:27;78234.16;;;-145.25;81.06
54146;BME280;65909;49.422;7.738;2023-01-28T08:03:53;78234.16;;;-145.25;80.67
54146;BME280;65909;49.422;7.738;2023-01-28T08:06:18;78210.09;;;-145.25;80.52
54146;BME280;65909;49.422;7.738;2023-01-28T08:08:43;78218.13;;;-145.25;80.06
54146;BME280;65909;49.422;7.738;2023-01-28T08:11:09;78192.06;;;-145.25;79.18
54146;BME280;65909;49.422;7.738;2023-01-28T08:13:35;78198.06;;;-145.25;79.04
54146;BME280;65909;49.422;7.738;2023-01-28T08:16:01;78232.16;;;-145.25;79.36
54146;BME280;65909;49.422;7.738;2023-01-28T08:18:26;78224.16;;;-145.25;79.04
54146;BME280;65909;49.422;7.738;2023-01-28T08:20:55;78226.16;;;-145.25;79.72
54146;BME280;65909;49.422;7.738;2023-01-28T08:23:21;78222.13;;;-145.25;79.15
54146;BME280;65909;49.422;7.738;2023-01-28T08:25:46;78198.06;;;-145.25;78.76
54146;BME280;65909;49.422;7.738;2023-01-28T08:28:13;78186.03;;;-145.25;76.65
54146;BME280;65909;49.422;7.738;2023-01-28T08:30:39;78196.06;;;-145.25;76.33
54146;BME280;65909;49.422;7.738;2023-01-28T08:33:06;78200.06;;;-145.25;76.74
54146;BME280;65909;49.422;7.738;2023-01-28T08:35:33;78218.13;;;-145.25;77.02
54146;BME280;65909;49.422;7.738;2023-01-28T08:37:59;78212.09;;;-145.25;76.76
54146;BME280;65909;49.422;7.738;2023-01-28T08:40:26;78202.09;;;-145.25;76.01
54146;BME280;65909;49.422;7.738;2023-01-28T08:42:52;78208.09;;;-145.25;76.27
54146;BME280;65909;49.422;7.738;2023-01-28T08:45:22;78228.16;;;-145.25;76.72
54146;BME280;65909;49.422;7.738;2023-01-28T08:48:16;78194.06;;;-145.25;75.55
54146;BME280;65909;49.422;7.738;2023-01-28T08:50:42;78204.09;;;-145.25;75.15
54146;BME280;65909;49.422;7.738;2023-01-28T08:53:18;78198.06;;;-145.25;75.04
54146;BME280;65909;49.422;7.738;2023-01-28T08:55:45;78214.13;;;-145.25;75.64
54146;BME280;65909;49.422;7.738;2023-01-28T08:58:13;78222.13;;;-145.25;76.39
54146;BME280;65909;49.422;7.738;2023-01-28T09:00:39;78202.09;;;-145.25;75.69
54146;BME280;65909;49.422;7.738;2023-01-28T09:03:05;78188.03;;;-145.25;74.99
54146;BME280;65909;49.422;7.738;2023-01-28T09:05:31;78202.09;;;-145.25;75.30
54146;BME280;65909;49.422;7.738;2023-01-28T09:08:02;78182.03;;;-145.25;74.74
54146;BME280;65909;49.422;7.738;2023-01-28T09:10:28;78216.13;;;-145.25;75.15
54146;BME280;65909;49.422;7.738;2023-01-28T09:12:54;78222.13;;;-145.25;75.72
54146;BME280;65909;49.422;7.738;2023-01-28T09:15:19;78222.13;;;-145.25;75.39
54146;BME280;65909;49.422;7.738;2023-01-28T09:17:44;78234.16;;;-145.25;75.70
54146;BME280;65909;49.422;7.738;2023-01-28T09:20:10;78234.16;;;-145.25;75.85
54146;BME280;65909;49.422;7.738;2023-01-28T09:22:37;78204.09;;;-145.25;74.99
54146;BME280;65909;49.422;7.738;2023-01-28T09:25:02;78226.16;;;-145.25;75.55
54146;BME280;65909;49.422;7.738;2023-01-28T09:27:28;78226.16;;;-145.25;75.23
54146;BME280;65909;49.422;7.738;2023-01-28T09:29:53;78248.22;;;-145.25;76.41
54146;BME280;65909;49.422;7.738;2023-01-28T09:32:18;78224.16;;;-145.25;76.09
54146;BME280;65909;49.422;7.738;2023-01-28T09:34:44;78228.16;;;-145.25;75.17
54146;BME280;65909;49.422;7.738;2023-01-28T09:37:10;78240.19;;;-145.25;76.46
54146;BME280;65909;49.422;7.738;2023-01-28T09:39:35;78236.19;;;-145.25;76.30
54146;BME280;65909;49.422;7.738;2023-01-28T09:42:31;78222.13;;;-145.25;75.80
54146;BME280;65909;49.422;7.738;2023-01-28T09:45:32;78202.09;;;-145.25;75.40
54146;BME280;65909;49.422;7.738;2023-01-28T09:48:00;78224.16;;;-145.25;75.20
54146;BME280;65909;49.422;7.738;2023-01-28T09:50:37;78228.16;;;-145.25;74.91
54146;BME280;65909;49.422;7.738;2023-01-28T09:53:29;78220.13;;;-145.25;75.57
54146;BME280;65909;49.422;7.738;2023-01-28T09:56:05;78204.09;;;-145.25;74.16
54146;BME280;65909;49.422;7.738;2023-01-28T09:58:33;78228.16;;;-145.25;74.42
54146;BME280;65909;49.422;7.738;2023-01-28T10:07:21;78206.09;;;-145.25;73.99
54146;BME280;65909;49.422;7.738;2023-01-28T10:10:08;78204.09;;;-145.25;74.05
54146;BME280;65909;49.422;7.738;2023-01-28T10:12:48;78174.00;;;-145.25;73.30
54146;BME280;65909;49.422;7.738;2023-01-28T10:17:56;78204.09;;;-145.25;72.88
54146;BME280;65909;49.422;7.738;2023-01-28T10:20:31;78224.16;;;-145.25;73.27
54146;BME280;65909;49.422;7.738;2023-01-28T10:23:07;78218.13;;;-145.25;73.71
54146;BME280;65909;49.422;7.738;2023-01-28T10:25:41;78220.13;;;-145.25;73.95
54146;BME280;65909;49.422;7.738;2023-01-28T10:28:38;78200.06;;;-145.25;72.98
54146;BME280;65909;49.422;7.738;2023-01-28T10:31:11;78192.06;;;-145.25;72.20
54146;BME280;65909;49.422;7.738;2023-01-28T10:33:36;78188.03;;;-145.25;72.64
54146;BME280;65909;49.422;7.738;2023-01-28T10:36:05;78182.03;;;-145.25;71.99
54146;BME280;65909;49.422;7.738;2023-01-28T10:38:31;78194.06;;;-145.25;71.45
54146;BME280;65909;49.422;7.738;2023-01-28T10:40:59;78172.00;;;-145.25;71.51
54146;BME280;65909;49.422;7.738;2023-01-28T10:43:30;78161.97;;;-145.25;71.76
54146;BME280;65909;49.422;7.738;2023-01-28T10:46:12;78157.97;;;-145.25;71.42
54146;BME280;65909;49.422;7.738;2023-01-28T10:51:18;78226.16;;;-145.25;72.28
54146;BME280;65909;49.422;7.738;2023-01-28T10:53:53;78202.09;;;-145.25;71.96
54146;BME280;65909;49.422;7.738;2023-01-28T10:56:30;78174.00;;;-145.25;70.49
54146;BME280;65909;49.422;7.738;2023-01-28T10:59:06;78220.13;;;-145.25;70.67
54146;BME280;65909;49.422;7.738;2023-01-28T11:01:49;78196.06;;;-145.25;71.15
54146;BME280;65909;49.422;7.738;2023-01-28T11:06:54;78149.94;;;-145.25;70.05
54146;BME280;65909;49.422;7.738;2023-01-28T11:09:26;78147.94;;;-145.25;69.24
54146;BME280;65909;49.422;7.738;2023-01-28T11:11:51;78155.94;;;-145.25;69.16
54146;BME280;65909;49.422;7.738;2023-01-28T11:14:22;78161.97;;;-145.25;69.30
54146;BME280;65909;49.422;7.738;2023-01-28T11:16:49;78172.00;;;-145.25;69.57
54146;BME280;65909;49.422;7.738;2023-01-28T11:19:18;78163.97;;;-145.25;68.62
54146;BME280;65909;49.422;7.738;2023-01-28T11:21:50;78151.94;;;-145.25;68.27
54146;BME280;65909;49.422;7.738;2023-01-28T11:24:24;78202.09;;;-145.25;68.93
54146;BME280;65909;49.422;7.738;2023-01-28T11:26:52;78186.03;;;-145.25;68.86
54146;BME280;65909;49.422;7.738;2023-01-28T11:29:26;78206.09;;;-145.25;68.38
54146;BME280;65909;49.422;7.738;2023-01-28T11:31:52;78165.97;;;-145.25;67.64
54146;BME280;65909;49.422;7.738;2023-01-28T11:34:19;78182.03;;;-145.25;67.71
54146;BME280;65909;49.422;7.738;2023-01-28T11:36:52;78176.00;;;-145.25;68.68
54146;BME280;65909;49.422;7.738;2023-01-28T11:39:22;78176.00;;;-145.25;67.80
54146;BME280;65909;49.422;7.738;2023-01-28T11:41:50;78163.97;;;-145.25;67.62
54146;BME280;65909;49.422;7.738;2023-01-28T11:44:26;78172.00;;;-145.25;67.15
54146;BME280;65909;49.422;7.738;2023-01-28T11:50:22;78167.97;;;-145.25;66.90
54146;BME280;65909;49.422;7.738;2023-01-28T11:53:19;78159.97;;;-145.25;66.79
54146;BME280;65909;49.422;7.738;2023-01-28T11:58:39;78123.84;;;-145.25;64.50
54146;BME280;65909;49.422;7.738;2023-01-28T12:01:35;78131.88;;;-145.25;64.72
54146;BME280;65909;49.422;7.738;2023-01-28T12:04:22;78125.88;;;-145.25;65.33
54146;BME280;65909;49.422;7.738;2023-01-28T12:16:04;78165.97;;;-145.25;64.55
54146;BME280;65909;49.422;7.738;2023-01-28T12:24:58;78149.94;;;-145.25;63.26
54146;BME280;65909;49.422;7.738;2023-01-28T12:30:29;78139.91;;;-145.25;62.92
54146;BME280;65909;49.422;7.738;2023-01-28T12:35:38;78129.88;;;-145.25;64.35
54146;BME280;65909;49.422;7.738;2023-01-28T12:38:10;78127.88;;;-145.25;63.10
54146;BME280;65909;49.422;7.738;2023-01-28T12:40:48;78129.88;;;-145.25;62.78
54146;BME280;65909;49.422;7.738;2023-01-28T12:46:02;78129.88;;;-145.25;62.19
54146;BME280;65909;49.422;7.738;2023-01-28T12:48:42;78131.88;;;-145.25;61.91
54146;BME280;65909;49.422;7.738;2023-01-28T12:51:15;78101.78;;;-145.25;62.47
54146;BME280;65909;49.422;7.738;2023-01-28T12:53:59;78085.75;;;-145.25;62.21
54146;BME280;65909;49.422;7.738;2023-01-28T12:56:32;78111.81;;;-145.25;63.10
54146;BME280;65909;49.422;7.738;2023-01-28T12:59:04;78129.88;;;-145.25;61.72
54146;BME280;65909;49.422;7.738;2023-01-28T13:01:56;78127.88;;;-145.25;61.78
54146;BME280;65909;49.422;7.738;2023-01-28T13:04:59;78109.81;;;-145.25;61.92
54146;BME280;65909;49.422;7.738;2023-01-28T13:07:44;78105.81;;;-145.25;60.60
54146;BME280;65909;49.422;7.738;2023-01-28T13:12:47;78119.84;;;-145.25;60.43
54146;BME280;65909;49.422;7.738;2023-01-28T13:15:15;78109.81;;;-145.25;60.04
54146;BME280;65909;49.422;7.738;2023-01-28T13:18:02;78121.84;;;-145.25;60.69
54146;BME280;65909;49.422;7.738;2023-01-28T13:20:48;78151.94;;;-145.25;60.80
54146;BME280;65909;49.422;7.738;2023-01-28T13:25:55;78172.00;;;-145.25;61.32
54146;BME280;65909;49.422;7.738;2023-01-28T13:28:29;78194.06;;;-145.25;61.99
54146;BME280;65909;49.422;7.738;2023-01-28T13:31:13;78184.03;;;-145.25;61.78
54146;BME280;65909;49.422;7.738;2023-01-28T13:33:45;78188.03;;;-145.25;61.31
54146;BME280;65909;49.422;7.738;2023-01-28T13:38:42;78174.00;;;-145.25;60.40
54146;BME280;65909;49.422;7.738;2023-01-28T13:41:09;78196.06;;;-145.25;60.53
54146;BME280;65909;49.422;7.738;2023-01-28T13:43:37;78212.09;;;-145.25;60.15
54146;BME280;65909;49.422;7.738;2023-01-28T13:46:12;78180.03;;;-145.25;59.03
54146;BME280;65909;49.422;7.738;2023-01-28T13:48:55;78188.03;;;-145.25;59.13
54146;BME280;65909;49.422;7.738;2023-01-28T13:51:24;78200.06;;;-145.25;59.63
54146;BME280;65909;49.422;7.738;2023-01-28T13:53:59;78212.09;;;-145.25;59.83
54146;BME280;65909;49.422;7.738;2023-01-28T13:56:32;78204.09;;;-145.25;59.96